| Date | Time | Temp. (oF) | Dew Point (oF) | Rel. Hum. (%) | Press. (in.) | Wind Dir. (deg.) | Wind Speed (mph) | Hourly Rainfall (i n.) |
|
|---|---|---|---|---|---|---|---|---|---|
| 1 | 07/20 | 24:00 | 126 | 73 | 21 | 30.12 | 330 | 0 | 0.00 |
| 2 | 07/19 | 23:00 | 126 | 73 | 21 | 30.16 | 330 | 0 | 0.00 |
| 3 | 07/19 | 22:00 | 126 | 73 | 21 | 30.19 | 330 | 2 | 0.00 |
| 4 | 07/19 | 21:00 | 126 | 71 | 20 | 30.12 | 330 | 2 | 0.00 |
| 5 | 07/19 | 20:00 | 126 | 71 | 20 | 30.11 | 300 | 6 | 0.00 |
| 6 | 07/19 | 19:00 | 126 | 71 | 20 | 30.11 | 320 | 4 | 0.00 |
| 7 | 07/19 | 18:00 | 126 | 70 | 19 | 30.10 | 290 | 7 | 0.00 |
| 8 | 07/19 | 17:00 | 126 | 68 | 18 | 30.10 | 330 | 6 | 0.00 |
| 9 | miss | miss | miss | miss | miss | miss | miss | miss | |
| 10 | 00/14 | 19:08 | 126 | 66 | 17 | 30.09 | 330 | 12 | 0.00 |
| 11 | miss | miss | miss | miss | miss | miss | miss | miss | |
| 12 | 00/14 | 19:06 | 126 | 66 | 17 | 30.09 | 270 | 6 | 0.00 |
| 13 | miss | miss | miss | miss | miss | miss | miss | miss | |
| 14 | 00/14 | 19:04 | 126 | 66 | 17 | 30.09 | 290 | 4 | 0.00 |
| 15 | miss | miss | miss | miss | miss | miss | miss | miss | |
| 16 | 00/14 | 19:02 | 126 | 66 | 17 | 30.09 | 290 | 4 | 0.00 |
| 17 | miss | miss | miss | miss | miss | miss | miss | miss | |
| 18 | 00/14 | 19:00 | 126 | 66 | 17 | 30.09 | 310 | 10 | 0.00 |
| 19 | miss | miss | miss | miss | miss | miss | miss | miss | |
| 20 | 04/24 | 25:52 | 126 | 66 | 17 | 30.09 | 290 | 9 | 0.00 |
| 21 | miss | miss | miss | miss | miss | miss | miss | miss | |
| 22 | 04/24 | 25:49 | 126 | 66 | 17 | 30.07 | 260 | 10 | 0.00 |
| 23 | miss | miss | miss | miss | miss | miss | miss | miss | |
| 24 | 04/24 | 25:47 | 126 | 65 | 16 | 30.07 | 260 | 10 | 0.00 |
| 25 | miss | miss | miss | miss | miss | miss | miss | miss | |
| 26 | 07/19 | 15:14 | 126 | 97 | 45 | 30.09 | 330 | 10 | 0.00 |
| 27 | miss | miss | miss | miss | miss | miss | miss | miss | |
| 28 | 07/19 | 15:14 | 126 | 97 | 45 | 30.09 | 330 | 10 | 0.00 |
| 29 | miss | miss | miss | miss | miss | miss | miss | miss | |
| 30 | 07/19 | 15:14 | 126 | 97 | 45 | 30.09 | 330 | 10 | 0.00 |
| 31 | miss | miss | miss | miss | miss | miss | miss | miss | |
| 32 | 07/19 | 15:14 | 126 | 97 | 45 | 30.09 | 330 | 10 | 0.00 |
| 33 | miss | miss | miss | miss | miss | miss | miss | miss | |
| 34 | 07/19 | 15:00 | 126 | 97 | 45 | 30.08 | 330 | 10 | 0.00 |
| 35 | 07/19 | 14:00 | 126 | 97 | 44 | 30.09 | 330 | 6 | 0.00 |
| 36 | 07/19 | 13:00 | 126 | 96 | 43 | 30.09 | 110 | 1 | 0.00 |
| 37 | 07/19 | 12:00 | 93 | 67 | 44 | 30.11 | 330 | 4 | 0.00 |
| 38 | 07/19 | 11:00 | 89 | 68 | 51 | 30.14 | 270 | 4 | 0.00 |
| 39 | 07/19 | 10:00 | 82 | 68 | 64 | 30.15 | 310 | 4 | 0.00 |
| 40 | 07/19 | 09:00 | 77 | 68 | 75 | 30.16 | 340 | 0 | 0.00 |
| 41 | 07/19 | 08:00 | 73 | 66 | 81 | 30.17 | 130 | 0 | 0.00 |
| 42 | 07/19 | 07:00 | 71 | 65 | 82 | 30.17 | 130 | 0 | 0.00 |
| 43 | 07/19 | 06:00 | 71 | 64 | 81 | 30.22 | 130 | 0 | 0.00 |
| 44 | 07/19 | 05:00 | 72 | 64 | 78 | 30.22 | 130 | 0 | 0.00 |
| 45 | 07/19 | 04:00 | 73 | 64 | 75 | 30.21 | 130 | 0 | 0.00 |
| 46 | 07/19 | 03:00 | 74 | 64 | 72 | 30.21 | 130 | 0 | 0.00 |
| 47 | 07/19 | 02:00 | 75 | 63 | 67 | 30.21 | 130 | 0 | 0.00 |
| 48 | 07/19 | 01:00 | 77 | 63 | 63 | 30.20 | 130 | 1 | 0.00 |
| 49 | 07/19 | 24:00 | 79 | 62 | 57 | 30.16 | 130 | 1 | 0.00 |
| 50 | 07/18 | 23:00 | 81 | 63 | 56 | 30.16 | 130 | 0 | 0.00 |
| 51 | 07/18 | 22:00 | 82 | 61 | 51 | 30.18 | 130 | 1 | 0.00 |
| 52 | 07/18 | 21:00 | 85 | 61 | 45 | 30.18 | 130 | 0 | 0.00 |
| 53 | 07/18 | 20:00 | 88 | 64 | 46 | 30.18 | 150 | 4 | 0.00 |
| 54 | 07/18 | 19:00 | 90 | 66 | 47 | 30.16 | 130 | 4 | 0.00 |
| 55 | 07/18 | 18:00 | 92 | 66 | 44 | 30.17 | 210 | 4 | 0.00 |
| 56 | 07/18 | 17:00 | 93 | 64 | 39 | 30.18 | 140 | 1 | 0.00 |
| 57 | 07/18 | 16:00 | 95 | 64 | 37 | 30.20 | 330 | 6 | 0.00 |
| 58 | 07/18 | 15:00 | 96 | 63 | 35 | 30.21 | 290 | 0 | 0.00 |
| 59 | 07/18 | 14:00 | 97 | 66 | 38 | 30.22 | 290 | 1 | 0.00 |
| 60 | 07/18 | 13:00 | 97 | 66 | 38 | 30.24 | 270 | 4 | 0.00 |
| 61 | 07/18 | 12:00 | 95 | 70 | 46 | 30.26 | 130 | 4 | 0.00 |
| 62 | 07/18 | 11:00 | 90 | 70 | 54 | 30.34 | 270 | 2 | 0.00 |
| 63 | 07/18 | 10:00 | 80 | 70 | 72 | 30.34 | 290 | 2 | 0.00 |
| 64 | 07/18 | 09:00 | 76 | 68 | 78 | 30.34 | 290 | 0 | 0.00 |
| 65 | 07/18 | 08:00 | 72 | 67 | 85 | 30.33 | 290 | 0 | 0.00 |
| 66 | 07/18 | 07:00 | 71 | 65 | 84 | 30.33 | 290 | 0 | 0.00 |
| 67 | 07/18 | 06:00 | 71 | 64 | 81 | 30.31 | 290 | 0 | 0.00 |
| 68 | 07/18 | 05:00 | 71 | 64 | 80 | 30.30 | 290 | 0 | 0.00 |
| 69 | 07/18 | 04:00 | 72 | 64 | 77 | 30.30 | 290 | 0 | 0.00 |
| 70 | 07/18 | 03:00 | 73 | 63 | 73 | 30.30 | 290 | 0 | 0.00 |
| 71 | 07/18 | 02:00 | 74 | 63 | 70 | 30.30 | 290 | 0 | 0.00 |
| 72 | 07/18 | 01:00 | 76 | 64 | 67 | 30.29 | 290 | 0 | 0.00 |
| 73 | 07/18 | 24:00 | 77 | 63 | 64 | 30.28 | 290 | 0 | 0.00 |
| 74 | 07/17 | 23:00 | 79 | 63 | 59 | 30.24 | 290 | 0 | 0.00 |
| 75 | 07/17 | 22:00 | 81 | 63 | 56 | 30.24 | 290 | 0 | 0.00 |